This is the latest recevied weather packets stored in our database for station/object N8XE-13. If no packets are shown the sender has not sent any weather packets the latest 1 day(s).
| Time | Temp. | Humidity | Pressure | Rain* | Wind** | Luminosity | Snow |
|---|---|---|---|---|---|---|---|
| 1778096112 | 13.89° C | 53% | - | 0 mm | - | - | - |
| 1778095506 | 13.89° C | 52% | - | 0 mm | - | - | - |
| 1778094899 | 13.89° C | 52% | - | 0 mm | - | - | - |
| 1778094595 | 14.44° C | 52% | - | 0 mm | - | - | - |
| 1778093383 | 14.44° C | 52% | - | 0 mm | - | - | - |
| 1778092777 | 13.89° C | 52% | - | 0 mm | - | - | - |
| 1778091867 | 14.44° C | 52% | - | 0 mm | - | - | - |
| 1778091564 | 15° C | 52% | - | 0 mm | - | - | - |
| 1778091262 | 14.44° C | 52% | - | 0 mm | - | - | - |
| 1778089746 | 13.89° C | 53% | - | 0 mm | - | - | - |
| 1778088534 | 14.44° C | 53% | - | 0 mm | - | - | - |
| 1778087928 | 13.89° C | 53% | - | 0 mm | - | - | - |
| 1778087018 | 13.33° C | 57% | - | 0 mm | - | - | - |
| 1778085500 | 13.33° C | 58% | - | 0 mm | - | - | - |
| 1778084890 | 12.78° C | 58% | - | 0 mm | - | - | - |
| 1778084285 | 12.78° C | 60% | - | 0 mm | - | - | - |
| 1778082772 | 11.67° C | 64% | - | 0 mm | - | - | - |
| 1778077708 | 10° C | 72% | - | 0 mm | - | - | - |
| 1778077104 | 9.44° C | 75% | - | 0 mm | - | - | - |
| 1778076196 | 9.44° C | 78% | - | 0 mm | - | - | - |
| 1778075893 | 8.89° C | 78% | - | 0 mm | - | - | - |
| 1778075589 | 8.89° C | 79% | - | 0 mm | - | - | - |
| 1778075286 | 8.89° C | 79% | - | 0 mm | - | - | - |
| 1778074073 | 8.33° C | 81% | - | 0 mm | - | - | - |
| 1778072861 | 7.78° C | 87% | - | 0 mm | - | - | - |
* Rain latest hour (hover to see other rain measurements)
** Current wind speed in m/s (hover to see current wind gust speed)